Time;durP1;ratioP1;P1;durP2;ratioP2;P2;SDS_P1;SDS_P2;PMS_P1;PMS_P2;Temp;Humidity;BMP_temperature;BMP_pressure;BME280_temperature;BME280_humidity;BME280_pressure;Samples;Min_cycle;Max_cycle;Signal;HPM_P1;HPM_P2
2021/10/22 00:01:43;;;;;;;2.65;1.13;;;13.50;43.20;;;;;;5071024;28;20247;-63
2021/10/22 00:04:11;;;;;;;2.05;1.00;;;13.50;43.20;;;;;;5071667;28;20549;-63
2021/10/22 00:06:43;;;;;;;3.15;1.23;;;13.50;43.50;;;;;;5072040;28;20532;-64
2021/10/22 00:09:12;;;;;;;2.30;0.90;;;13.50;43.50;;;;;;5071286;28;20182;-64
2021/10/22 00:11:45;;;;;;;5.25;1.33;;;13.50;43.70;;;;;;5072006;28;20296;-64
2021/10/22 00:14:15;;;;;;;3.40;1.20;;;13.50;43.60;;;;;;5070675;28;20193;-64
2021/10/22 00:16:43;;;;;;;3.55;1.10;;;13.50;44.10;;;;;;5058780;28;20225;-63
2021/10/22 00:19:12;;;;;;;4.70;0.98;;;13.50;43.60;;;;;;5075709;28;20193;-64
2021/10/22 00:21:39;;;;;;;4.47;1.40;;;13.60;43.80;;;;;;5075087;28;20193;-64
2021/10/22 00:24:10;;;;;;;5.28;1.10;;;13.60;43.80;;;;;;5075707;28;20600;-64
2021/10/22 00:26:38;;;;;;;3.25;1.10;;;13.60;43.90;;;;;;5075341;28;20493;-63
2021/10/22 00:29:06;;;;;;;5.13;1.00;;;13.60;44.00;;;;;;5075540;28;20640;-64
2021/10/22 00:31:38;;;;;;;2.45;0.75;;;13.60;44.10;;;;;;5074942;28;20182;-64
2021/10/22 00:34:07;;;;;;;6.30;1.05;;;13.60;43.80;;;;;;5075111;28;20221;-64
2021/10/22 00:36:37;;;;;;;1.80;0.90;;;13.60;43.90;;;;;;5074877;28;20263;-64
2021/10/22 00:39:07;;;;;;;2.60;1.10;;;13.70;44.00;;;;;;5074927;28;20239;-64
2021/10/22 00:41:38;;;;;;;2.30;1.00;;;13.70;44.10;;;;;;5074494;28;20210;-64
2021/10/22 00:44:06;;;;;;;4.97;1.20;;;13.70;44.50;;;;;;5074943;28;20271;-63
2021/10/22 00:46:41;;;;;;;2.58;1.23;;;13.70;44.40;;;;;;5075119;28;20212;-63
2021/10/22 00:49:09;;;;;;;3.15;1.10;;;13.70;44.90;;;;;;5074506;28;20185;-64
2021/10/22 00:51:41;;;;;;;3.45;1.10;;;13.70;45.30;;;;;;5075149;28;20203;-63
2021/10/22 00:54:10;;;;;;;3.85;1.25;;;13.70;45.50;;;;;;5074784;28;20197;-64
2021/10/22 00:56:39;;;;;;;3.38;1.35;;;13.70;45.80;;;;;;5075259;28;20209;-64
2021/10/22 00:59:13;;;;;;;3.08;1.13;;;13.70;46.20;;;;;;5074388;28;20193;-64
2021/10/22 01:01:44;;;;;;;2.33;1.20;;;13.70;46.40;;;;;;5075057;28;20243;-63
2021/10/22 01:04:11;;;;;;;3.15;0.88;;;13.70;47.00;;;;;;5074301;28;20225;-64
2021/10/22 01:06:41;;;;;;;2.22;1.02;;;13.70;46.70;;;;;;5074242;28;20182;-68
2021/10/22 01:09:10;;;;;;;7.65;1.30;;;13.70;47.10;;;;;;5074221;28;20225;-64
2021/10/22 01:11:40;;;;;;;3.13;0.90;;;13.60;47.90;;;;;;5074845;28;20190;-63
2021/10/22 01:14:13;;;;;;;3.58;1.13;;;13.60;48.60;;;;;;5074631;28;20181;-63
2021/10/22 01:16:41;;;;;;;3.15;0.80;;;13.60;49.00;;;;;;5074971;28;20240;-64
2021/10/22 01:19:24;;;;;;;5.25;1.30;;;13.60;49.40;;;;;;5074336;28;20195;-64
2021/10/22 01:21:58;;;;;;;5.28;1.88;;;13.60;50.10;;;;;;5074124;28;20695;-65
2021/10/22 01:24:25;;;;;;;2.25;1.08;;;13.50;50.30;;;;;;5054746;28;20198;-63
2021/10/22 01:26:54;;;;;;;3.15;1.00;;;13.50;50.80;;;;;;5064724;28;20190;-64
2021/10/22 01:29:22;;;;;;;1.88;0.80;;;13.50;52.20;;;;;;5073486;28;20197;-63
2021/10/22 01:31:49;;;;;;;5.43;1.05;;;13.50;52.10;;;;;;5073977;28;20190;-64
2021/10/22 01:34:17;;;;;;;5.32;1.08;;;13.40;52.80;;;;;;5074278;28;20189;-63
2021/10/22 01:36:46;;;;;;;4.75;1.17;;;13.30;53.20;;;;;;5074058;28;20217;-63
2021/10/22 01:39:16;;;;;;;4.15;1.30;;;13.30;53.50;;;;;;5073989;28;20251;-63
2021/10/22 01:41:43;;;;;;;3.20;1.17;;;13.30;53.70;;;;;;5074262;28;20194;-64
2021/10/22 01:44:22;;;;;;;2.65;1.13;;;13.30;53.80;;;;;;5074033;28;20204;-63
2021/10/22 01:46:55;;;;;;;3.55;1.02;;;13.30;54.20;;;;;;5074246;28;20196;-64
2021/10/22 01:49:25;;;;;;;3.88;1.35;;;13.30;54.60;;;;;;5073802;28;20199;-63
2021/10/22 01:51:52;;;;;;;2.20;1.00;;;13.20;55.20;;;;;;5074280;28;20606;-64
2021/10/22 01:54:21;;;;;;;4.25;1.20;;;13.20;54.90;;;;;;5072994;28;21595;-64
2021/10/22 01:56:53;;;;;;;3.25;1.30;;;13.10;54.70;;;;;;5073973;28;20260;-63
2021/10/22 01:59:20;;;;;;;3.40;1.20;;;13.10;55.10;;;;;;5073577;28;20193;-63
2021/10/22 02:01:53;;;;;;;4.70;1.40;;;13.10;55.60;;;;;;5073644;28;20189;-63
2021/10/22 02:04:23;;;;;;;2.05;1.10;;;13.10;55.70;;;;;;5073574;28;20553;-64
2021/10/22 02:06:51;;;;;;;3.78;1.88;;;13.00;56.10;;;;;;5073669;28;20602;-64
2021/10/22 02:09:28;;;;;;;3.60;1.23;;;13.00;56.40;;;;;;5072510;28;20243;-64
2021/10/22 02:11:56;;;;;;;3.78;1.27;;;13.00;56.90;;;;;;5071195;28;20193;-64
2021/10/22 02:14:28;;;;;;;2.33;0.90;;;13.00;56.70;;;;;;5073712;28;20235;-63
2021/10/22 02:16:57;;;;;;;2.65;1.40;;;13.00;57.00;;;;;;5072814;28;20214;-63
2021/10/22 02:19:25;;;;;;;3.10;1.20;;;12.90;56.70;;;;;;5073363;28;20185;-64
2021/10/22 02:21:54;;;;;;;3.78;1.38;;;12.90;57.20;;;;;;5073301;28;20194;-63
2021/10/22 02:24:22;;;;;;;6.10;1.08;;;12.90;57.20;;;;;;5073399;28;20185;-64
2021/10/22 02:26:50;;;;;;;5.90;1.13;;;12.90;56.40;;;;;;5072576;28;20264;-63
2021/10/22 02:29:23;;;;;;;2.25;1.10;;;12.80;56.50;;;;;;5073421;28;20247;-63
2021/10/22 02:31:50;;;;;;;4.45;1.05;;;12.80;56.50;;;;;;5072837;28;20280;-64
2021/10/22 02:34:20;;;;;;;2.78;1.00;;;12.80;56.40;;;;;;5073130;28;20193;-63
2021/10/22 02:36:49;;;;;;;3.55;1.02;;;12.80;56.10;;;;;;5072683;28;20217;-63
2021/10/22 02:39:17;;;;;;;4.35;0.90;;;12.80;56.40;;;;;;5073146;28;20201;-64
2021/10/22 02:41:45;;;;;;;1.98;0.90;;;12.70;56.20;;;;;;5072172;28;21045;-64
2021/10/22 02:44:14;;;;;;;2.63;0.93;;;12.80;56.40;;;;;;5069528;28;20217;-64
2021/10/22 02:46:43;;;;;;;4.30;1.05;;;12.80;56.80;;;;;;5072206;28;20243;-64
2021/10/22 02:49:15;;;;;;;3.28;1.10;;;12.80;56.80;;;;;;5072895;28;20648;-64
2021/10/22 02:51:42;;;;;;;4.15;1.10;;;12.80;57.60;;;;;;5072435;28;20190;-63
2021/10/22 02:54:10;;;;;;;5.20;0.88;;;12.80;57.60;;;;;;5072774;28;20644;-63
2021/10/22 02:56:39;;;;;;;2.90;1.08;;;12.80;57.50;;;;;;5072145;28;20279;-63
2021/10/22 02:59:06;;;;;;;2.05;0.80;;;12.80;57.30;;;;;;5072145;28;20182;-63
2021/10/22 03:01:35;;;;;;;2.65;1.08;;;12.80;57.50;;;;;;5072815;28;20200;-63
2021/10/22 03:04:03;;;;;;;2.15;0.90;;;12.80;57.40;;;;;;5072332;28;20185;-63
2021/10/22 03:06:30;;;;;;;2.10;1.05;;;12.70;57.30;;;;;;5072413;28;20225;-64
2021/10/22 03:08:58;;;;;;;2.83;1.17;;;12.70;57.20;;;;;;5071215;28;20679;-62
2021/10/22 03:11:30;;;;;;;3.70;1.20;;;12.70;57.20;;;;;;5072375;28;20190;-64
2021/10/22 03:13:59;;;;;;;1.73;0.70;;;12.70;57.70;;;;;;5072143;28;20251;-63
2021/10/22 03:16:28;;;;;;;2.20;0.90;;;12.70;58.30;;;;;;5071360;28;20217;-64
2021/10/22 03:18:59;;;;;;;3.53;1.05;;;12.70;58.60;;;;;;5072564;28;20694;-64
2021/10/22 03:21:27;;;;;;;3.58;0.90;;;12.70;59.00;;;;;;5072418;28;20200;-64
2021/10/22 03:23:57;;;;;;;1.60;0.90;;;12.60;58.90;;;;;;5072356;28;20231;-64
2021/10/22 03:26:29;;;;;;;4.85;1.08;;;12.60;59.10;;;;;;5072862;28;20190;-63
2021/10/22 03:28:57;;;;;;;2.33;1.10;;;12.60;58.70;;;;;;5072111;28;20189;-65
2021/10/22 03:31:27;;;;;;;1.90;0.80;;;12.60;58.60;;;;;;5071847;28;20190;-64
2021/10/22 03:34:00;;;;;;;1.90;1.00;;;12.60;58.80;;;;;;5072529;28;20189;-64
2021/10/22 03:36:30;;;;;;;4.30;1.13;;;12.70;59.20;;;;;;5071944;28;20221;-66
2021/10/22 03:38:58;;;;;;;3.58;1.70;;;12.70;59.40;;;;;;5071908;28;20202;-63
2021/10/22 03:41:27;;;;;;;2.47;1.00;;;12.70;59.60;;;;;;5071786;28;20181;-64
2021/10/22 03:44:04;;;;;;;3.35;1.23;;;12.60;59.50;;;;;;5072642;28;20271;-63
2021/10/22 03:46:32;;;;;;;4.57;1.10;;;12.70;59.70;;;;;;5071551;28;20243;-64
2021/10/22 03:49:01;;;;;;;2.50;1.25;;;12.70;59.20;;;;;;5068293;28;20190;-64
2021/10/22 03:51:28;;;;;;;7.43;1.70;;;12.60;58.80;;;;;;5071461;28;20185;-63
2021/10/22 03:53:56;;;;;;;3.90;1.20;;;12.70;59.10;;;;;;5075265;28;20194;-63
2021/10/22 03:56:24;;;;;;;3.47;1.08;;;12.70;59.60;;;;;;5075932;28;20217;-63
2021/10/22 03:58:51;;;;;;;1.83;0.95;;;12.70;60.20;;;;;;5076253;28;20595;-63
2021/10/22 04:01:19;;;;;;;3.20;1.17;;;12.70;60.40;;;;;;5075983;28;20189;-63
2021/10/22 04:03:46;;;;;;;2.05;0.90;;;12.70;60.10;;;;;;5076245;28;20594;-64
2021/10/22 04:06:14;;;;;;;2.83;0.90;;;12.70;60.40;;;;;;5076198;28;20617;-64
2021/10/22 04:08:42;;;;;;;5.82;1.23;;;12.60;60.90;;;;;;5075733;28;20193;-64
2021/10/22 04:11:09;;;;;;;3.47;1.10;;;12.60;61.30;;;;;;5075577;28;20218;-64
2021/10/22 04:13:39;;;;;;;3.10;0.95;;;12.70;61.20;;;;;;5075749;28;20177;-64
2021/10/22 04:16:08;;;;;;;2.28;1.00;;;12.60;61.20;;;;;;5076136;28;20231;-64
2021/10/22 04:18:37;;;;;;;3.63;1.20;;;12.60;61.40;;;;;;5075701;28;20600;-64
2021/10/22 04:21:04;;;;;;;2.00;0.80;;;12.60;61.80;;;;;;5075016;28;20189;-64
2021/10/22 04:23:33;;;;;;;6.97;1.38;;;12.50;61.70;;;;;;5075838;28;20194;-64
2021/10/22 04:26:01;;;;;;;2.72;1.00;;;12.50;62.20;;;;;;5076067;28;20190;-64
2021/10/22 04:28:28;;;;;;;5.28;1.38;;;12.50;62.30;;;;;;5075335;28;20189;-64
2021/10/22 04:30:55;;;;;;;3.60;1.08;;;12.50;62.30;;;;;;5075784;28;20537;-64
2021/10/22 04:33:25;;;;;;;2.20;1.05;;;12.50;62.40;;;;;;5075620;28;20198;-64
2021/10/22 04:35:55;;;;;;;2.78;0.95;;;12.50;62.80;;;;;;5064136;28;20206;-64
2021/10/22 04:41:09;;;;;;;2.95;1.02;;;12.50;62.30;;;;;;5075593;28;20284;-63
2021/10/22 04:43:37;;;;;;;2.95;0.88;;;12.50;62.00;;;;;;5075737;28;20648;-63
2021/10/22 04:46:10;;;;;;;2.55;1.33;;;12.50;61.20;;;;;;5074416;28;20259;-63
2021/10/22 04:48:37;;;;;;;8.02;5.47;;;12.50;61.00;;;;;;5075554;28;20197;-64
2021/10/22 04:51:06;;;;;;;7.38;2.75;;;12.50;60.70;;;;;;5075106;28;20182;-64
2021/10/22 04:53:35;;;;;;;5.63;1.25;;;12.50;60.80;;;;;;5074739;28;20186;-63
2021/10/22 04:56:03;;;;;;;4.47;1.67;;;12.50;60.70;;;;;;5075362;28;20221;-63
2021/10/22 04:58:32;;;;;;;6.28;1.10;;;12.50;60.20;;;;;;5075253;28;20222;-64
2021/10/22 05:01:00;;;;;;;3.38;1.10;;;12.50;60.40;;;;;;5074712;28;20535;-64
2021/10/22 05:03:30;;;;;;;3.53;1.10;;;12.50;60.30;;;;;;5075071;28;20186;-64
2021/10/22 05:05:59;;;;;;;4.63;1.55;;;12.50;60.10;;;;;;5075166;28;20717;-66
2021/10/22 05:08:29;;;;;;;3.08;1.48;;;12.40;59.90;;;;;;5064710;28;20181;-63
2021/10/22 05:10:57;;;;;;;2.28;0.90;;;12.40;59.90;;;;;;5074682;28;20214;-64
2021/10/22 05:13:24;;;;;;;3.78;1.02;;;12.50;60.10;;;;;;5075008;28;20182;-63
2021/10/22 05:15:56;;;;;;;2.60;1.30;;;12.40;60.00;;;;;;5075026;28;20198;-64
2021/10/22 05:18:28;;;;;;;4.75;1.45;;;12.50;60.40;;;;;;5074188;28;20239;-63
2021/10/22 05:20:55;;;;;;;2.00;0.80;;;12.50;60.30;;;;;;5074985;28;20204;-64
2021/10/22 05:23:25;;;;;;;3.20;1.15;;;12.50;60.30;;;;;;5074426;28;20186;-63
2021/10/22 05:25:54;;;;;;;2.00;0.90;;;12.50;60.50;;;;;;5074816;28;20190;-63
2021/10/22 05:28:26;;;;;;;2.80;1.00;;;12.50;60.90;;;;;;5074833;28;20197;-64
2021/10/22 05:30:57;;;;;;;3.17;1.30;;;12.50;61.50;;;;;;5074918;28;20259;-64
2021/10/22 05:33:30;;;;;;;2.45;1.00;;;12.50;62.40;;;;;;5074794;28;20197;-65
2021/10/22 05:36:00;;;;;;;2.63;1.13;;;12.50;62.90;;;;;;5073389;28;20189;-64
2021/10/22 05:38:30;;;;;;;3.70;1.40;;;12.50;63.50;;;;;;5074810;28;20250;-64
2021/10/22 05:40:59;;;;;;;4.70;1.65;;;12.50;63.90;;;;;;5074012;28;20193;-64
2021/10/22 05:43:30;;;;;;;4.32;1.75;;;12.50;64.70;;;;;;5074520;28;20190;-64
2021/10/22 05:45:59;;;;;;;1.85;0.88;;;12.40;64.80;;;;;;5074057;28;20194;-64
2021/10/22 05:48:31;;;;;;;2.22;1.23;;;12.40;65.70;;;;;;5074378;28;20189;-64
2021/10/22 05:51:00;;;;;;;2.22;1.15;;;12.40;66.00;;;;;;5074365;28;20243;-64
2021/10/22 05:53:30;;;;;;;2.30;1.10;;;12.30;65.40;;;;;;5074273;28;20190;-64
2021/10/22 05:55:59;;;;;;;2.20;0.95;;;12.20;65.00;;;;;;5073544;28;20217;-64
2021/10/22 05:58:29;;;;;;;1.88;0.90;;;12.00;65.00;;;;;;5070839;28;20190;-63
2021/10/22 06:00:58;;;;;;;4.30;1.00;;;11.90;65.30;;;;;;5074198;28;20197;-63
2021/10/22 06:03:25;;;;;;;2.88;1.10;;;11.80;65.40;;;;;;5074290;28;20196;-64
2021/10/22 06:05:53;;;;;;;1.80;0.85;;;11.70;65.70;;;;;;5073766;28;20603;-64
2021/10/22 06:08:21;;;;;;;2.83;0.85;;;11.60;65.80;;;;;;5069357;28;20217;-64
2021/10/22 06:10:53;;;;;;;1.70;0.93;;;11.60;66.30;;;;;;5073705;28;20563;-63
2021/10/22 06:13:21;;;;;;;1.60;0.68;;;11.50;66.20;;;;;;5073424;28;20185;-64
2021/10/22 06:15:49;;;;;;;1.60;0.70;;;11.50;66.40;;;;;;5073606;28;20189;-63
2021/10/22 06:18:19;;;;;;;1.70;0.70;;;11.50;66.60;;;;;;5072962;28;20221;-63
2021/10/22 06:20:51;;;;;;;1.80;0.80;;;11.40;66.20;;;;;;5073588;28;20781;-64
2021/10/22 06:26:05;;;;;;;1.83;0.95;;;11.40;66.50;;;;;;5073370;28;20247;-63
2021/10/22 06:28:35;;;;;;;1.65;0.85;;;11.50;66.60;;;;;;5072903;28;20243;-64
2021/10/22 06:31:04;;;;;;;1.63;0.70;;;11.60;66.20;;;;;;5069942;28;20194;-64
2021/10/22 06:33:35;;;;;;;1.48;0.70;;;11.60;65.80;;;;;;5067729;28;20646;-64
2021/10/22 06:36:03;;;;;;;1.80;0.80;;;11.60;65.70;;;;;;5071982;28;20250;-63
2021/10/22 06:38:30;;;;;;;1.80;0.80;;;11.60;65.60;;;;;;5071145;28;20228;-64
2021/10/22 06:40:59;;;;;;;1.63;0.88;;;11.70;65.70;;;;;;5067689;28;20189;-64
2021/10/22 06:43:29;;;;;;;1.92;1.10;;;11.80;65.70;;;;;;5071429;28;20250;-63
2021/10/22 06:45:56;;;;;;;1.60;0.70;;;11.80;64.90;;;;;;5071108;28;20193;-64
2021/10/22 06:48:24;;;;;;;2.78;0.95;;;11.80;64.90;;;;;;5070880;28;20190;-64
2021/10/22 06:50:59;;;;;;;1.88;0.90;;;11.70;64.50;;;;;;5071302;28;20190;-64
2021/10/22 06:53:28;;;;;;;3.45;0.90;;;11.70;64.60;;;;;;5071695;28;20189;-64
2021/10/22 06:55:57;;;;;;;3.75;0.80;;;11.90;65.50;;;;;;5071136;28;20186;-64
2021/10/22 06:58:32;;;;;;;2.83;0.73;;;12.20;66.60;;;;;;5071564;28;20760;-63
2021/10/22 07:01:04;;;;;;;2.10;0.77;;;12.50;64.40;;;;;;5070716;28;20190;-64
2021/10/22 07:03:39;;;;;;;2.35;1.00;;;12.50;63.00;;;;;;5071152;28;20182;-65
2021/10/22 07:08:54;;;;;;;2.45;0.70;;;12.50;61.90;;;;;;5069101;28;20196;-64
2021/10/22 07:11:23;;;;;;;2.55;0.80;;;12.40;61.70;;;;;;5070845;28;20225;-64
2021/10/22 07:13:53;;;;;;;2.15;0.80;;;12.40;61.80;;;;;;5071022;28;20185;-64
2021/10/22 07:16:21;;;;;;;1.40;0.70;;;12.40;61.70;;;;;;5071375;28;20193;-64
2021/10/22 07:18:51;;;;;;;2.78;0.73;;;12.40;60.90;;;;;;5070635;28;20186;-63
2021/10/22 07:21:20;;;;;;;1.50;0.70;;;12.40;61.20;;;;;;5066939;28;20346;-65
2021/10/22 07:23:49;;;;;;;1.90;1.00;;;12.40;61.20;;;;;;5070949;28;20315;-64
2021/10/22 07:26:19;;;;;;;1.70;0.80;;;12.50;60.60;;;;;;5070630;28;20243;-64
2021/10/22 07:28:47;;;;;;;2.35;1.02;;;12.50;60.60;;;;;;5070297;28;20181;-64
2021/10/22 07:31:14;;;;;;;1.75;0.90;;;12.60;61.60;;;;;;5071042;28;20189;-64
2021/10/22 07:33:42;;;;;;;2.35;0.90;;;12.80;62.40;;;;;;5069917;28;20189;-64
2021/10/22 07:36:12;;;;;;;2.10;0.88;;;13.20;62.10;;;;;;5070220;28;20208;-64
2021/10/22 07:38:42;;;;;;;1.90;0.82;;;13.50;60.20;;;;;;5066711;28;20216;-63
2021/10/22 07:41:10;;;;;;;1.80;0.75;;;13.70;58.90;;;;;;5070660;28;20189;-64
2021/10/22 07:43:37;;;;;;;2.58;1.02;;;13.80;57.90;;;;;;5071315;28;20186;-63
2021/10/22 07:46:05;;;;;;;2.53;0.70;;;13.80;57.70;;;;;;5066753;28;20225;-63
2021/10/22 07:48:32;;;;;;;1.83;1.00;;;13.70;57.70;;;;;;5071064;28;20197;-64
2021/10/22 07:50:59;;;;;;;2.88;1.00;;;13.60;57.70;;;;;;5070322;28;20251;-64
2021/10/22 07:53:27;;;;;;;1.85;0.82;;;13.50;57.40;;;;;;5071216;28;20221;-65
2021/10/22 07:55:55;;;;;;;1.60;0.70;;;13.40;58.00;;;;;;5064151;28;20534;-64
2021/10/22 07:58:22;;;;;;;1.92;0.82;;;13.30;57.80;;;;;;5070696;28;20348;-67
2021/10/22 08:00:50;;;;;;;1.65;0.68;;;13.10;58.10;;;;;;5070255;28;20236;-64
2021/10/22 08:03:17;;;;;;;1.60;0.80;;;13.00;58.80;;;;;;5070510;28;20193;-65
2021/10/22 08:05:44;;;;;;;2.10;1.00;;;12.90;58.40;;;;;;5070546;28;20227;-64
2021/10/22 08:08:11;;;;;;;3.40;0.98;;;12.80;58.30;;;;;;5070000;28;20743;-64
2021/10/22 08:10:38;;;;;;;2.03;0.90;;;12.80;58.90;;;;;;5069649;28;20315;-64
2021/10/22 08:13:10;;;;;;;2.22;0.90;;;12.80;59.10;;;;;;5070261;28;20584;-64
2021/10/22 08:15:40;;;;;;;2.80;1.00;;;12.80;58.80;;;;;;5069487;28;20196;-64
2021/10/22 08:18:09;;;;;;;2.15;0.95;;;12.80;58.60;;;;;;5070920;28;20316;-64
2021/10/22 08:20:37;;;;;;;4.72;1.00;;;12.80;59.00;;;;;;5070019;28;20186;-64
2021/10/22 08:23:05;;;;;;;2.78;0.90;;;12.80;59.30;;;;;;5070232;28;20189;-64
2021/10/22 08:25:33;;;;;;;1.50;0.60;;;12.70;59.10;;;;;;5070608;28;20201;-65
2021/10/22 08:28:00;;;;;;;2.08;0.88;;;12.70;59.30;;;;;;5070316;28;20281;-66
2021/10/22 08:30:29;;;;;;;1.77;0.70;;;12.70;59.30;;;;;;5070021;28;20202;-64
2021/10/22 08:32:57;;;;;;;2.60;1.42;;;12.70;59.20;;;;;;5070584;28;20648;-64
2021/10/22 08:35:26;;;;;;;1.80;1.00;;;12.70;59.90;;;;;;5069634;28;20225;-64
2021/10/22 08:37:54;;;;;;;2.38;1.00;;;12.70;59.60;;;;;;5069919;28;20217;-64
2021/10/22 08:40:24;;;;;;;2.20;0.90;;;12.70;59.90;;;;;;5074109;28;20185;-63
2021/10/22 08:42:52;;;;;;;4.10;1.02;;;12.70;59.80;;;;;;5073953;28;20622;-63
2021/10/22 08:45:20;;;;;;;2.45;1.10;;;12.70;59.90;;;;;;5073203;28;20642;-64
2021/10/22 08:47:48;;;;;;;2.03;1.20;;;12.70;60.50;;;;;;5073181;28;20185;-64
2021/10/22 08:50:16;;;;;;;3.35;0.93;;;12.80;60.20;;;;;;5072559;28;20718;-63
2021/10/22 08:52:44;;;;;;;2.40;0.95;;;12.80;60.60;;;;;;5073474;28;20265;-64
2021/10/22 08:55:12;;;;;;;2.53;1.40;;;12.80;60.40;;;;;;5072590;28;20182;-63
2021/10/22 08:57:42;;;;;;;5.00;1.00;;;12.80;60.50;;;;;;5074129;28;20240;-64
2021/10/22 09:00:11;;;;;;;3.70;1.10;;;12.80;60.50;;;;;;5073749;28;20272;-64
2021/10/22 09:02:38;;;;;;;2.58;0.98;;;12.80;60.30;;;;;;5073471;28;20276;-64
2021/10/22 09:05:15;;;;;;;3.03;1.55;;;12.90;60.30;;;;;;5072939;28;20217;-63
2021/10/22 09:07:45;;;;;;;5.28;1.15;;;13.00;60.00;;;;;;5072748;28;20204;-63
2021/10/22 09:10:16;;;;;;;2.35;0.80;;;13.00;59.80;;;;;;5072239;28;20222;-63
2021/10/22 09:12:46;;;;;;;3.45;1.10;;;13.00;59.20;;;;;;5070752;28;20656;-63
2021/10/22 09:15:14;;;;;;;3.20;1.13;;;12.90;58.90;;;;;;5072794;28;20280;-64
2021/10/22 09:17:43;;;;;;;2.58;1.10;;;12.70;59.30;;;;;;5065730;28;20217;-63
2021/10/22 09:20:14;;;;;;;2.15;1.20;;;12.70;59.80;;;;;;5072835;28;20267;-63
2021/10/22 09:22:48;;;;;;;4.00;1.15;;;12.70;60.40;;;;;;5072431;28;20232;-63
2021/10/22 09:25:19;;;;;;;2.45;1.00;;;12.60;60.00;;;;;;5069264;28;20189;-63
2021/10/22 09:27:47;;;;;;;3.60;1.40;;;12.50;60.60;;;;;;5069604;28;20536;-63
2021/10/22 09:30:31;;;;;;;5.65;2.90;;;12.50;60.60;;;;;;5071678;28;20255;-63
2021/10/22 09:33:02;;;;;;;2.45;1.30;;;12.50;61.90;;;;;;5068519;28;20243;-64
2021/10/22 09:35:40;;;;;;;2.40;1.40;;;12.40;62.00;;;;;;5070568;28;20185;-64
2021/10/22 09:38:16;;;;;;;2.30;1.25;;;12.40;63.00;;;;;;5070064;28;20232;-63
2021/10/22 09:40:44;;;;;;;2.33;1.60;;;12.40;62.80;;;;;;5069878;28;20594;-63
2021/10/22 09:43:16;;;;;;;3.38;1.58;;;12.40;62.60;;;;;;5070481;28;20198;-64
2021/10/22 09:45:44;;;;;;;2.35;1.40;;;12.40;63.60;;;;;;5070300;28;20198;-64
2021/10/22 09:48:32;;;;;;;3.85;1.52;;;12.40;63.00;;;;;;5070367;28;20288;-64
2021/10/22 09:51:22;;;;;;;3.35;1.35;;;12.30;62.90;;;;;;5069538;28;20197;-64
2021/10/22 09:53:49;;;;;;;4.50;2.20;;;12.30;63.10;;;;;;5071382;28;20221;-63
2021/10/22 09:56:22;;;;;;;3.17;1.70;;;12.30;63.10;;;;;;5070895;28;20229;-64
2021/10/22 09:58:58;;;;;;;3.70;1.63;;;12.30;63.70;;;;;;5070690;28;20259;-64
2021/10/22 10:01:34;;;;;;;4.40;2.55;;;12.40;64.10;;;;;;5070986;28;20250;-63
2021/10/22 10:04:01;;;;;;;3.65;1.52;;;12.30;63.90;;;;;;5070298;28;20205;-65
2021/10/22 10:06:32;;;;;;;4.32;1.60;;;12.30;63.70;;;;;;5071075;28;20193;-64
2021/10/22 10:08:59;;;;;;;3.40;1.73;;;12.30;63.90;;;;;;5070130;28;20189;-64
2021/10/22 10:11:27;;;;;;;3.58;1.67;;;12.40;64.10;;;;;;5070741;28;20193;-64
2021/10/22 10:13:54;;;;;;;3.42;1.70;;;12.40;64.40;;;;;;5070914;28;20652;-64
2021/10/22 10:16:27;;;;;;;2.55;1.40;;;12.40;64.10;;;;;;5066912;28;20213;-64
2021/10/22 10:18:58;;;;;;;2.20;1.60;;;12.40;64.30;;;;;;5069469;28;20539;-64
2021/10/22 10:21:28;;;;;;;2.53;1.30;;;12.40;64.00;;;;;;5069972;28;20225;-64
2021/10/22 10:23:57;;;;;;;3.55;1.58;;;12.40;63.70;;;;;;5070629;28;20280;-65
2021/10/22 10:26:30;;;;;;;4.10;2.00;;;12.40;63.70;;;;;;5071179;28;20198;-65
2021/10/22 10:28:59;;;;;;;1.98;1.30;;;12.30;63.90;;;;;;5071045;28;20229;-64
2021/10/22 10:31:30;;;;;;;3.75;1.73;;;12.40;64.80;;;;;;5069733;28;20574;-64
2021/10/22 10:33:57;;;;;;;2.65;1.48;;;12.30;64.40;;;;;;5070950;28;20190;-64
2021/10/22 10:36:46;;;;;;;3.08;1.48;;;12.30;64.70;;;;;;5070436;28;20229;-66
2021/10/22 10:39:15;;;;;;;2.00;1.42;;;12.30;65.00;;;;;;5070127;28;20667;-63
2021/10/22 10:41:43;;;;;;;2.45;1.60;;;12.30;64.90;;;;;;5070299;28;20296;-64
2021/10/22 10:44:31;;;;;;;3.22;1.77;;;12.20;65.00;;;;;;5072224;28;20636;-63
2021/10/22 10:46:59;;;;;;;2.78;1.10;;;12.40;66.00;;;;;;5066545;28;20188;-64
2021/10/22 10:50:02;;;;;;;2.53;1.38;;;12.40;65.20;;;;;;5071548;28;20196;-64
2021/10/22 10:52:52;;;;;;;3.08;2.20;;;12.40;63.90;;;;;;5067246;28;20251;-63
2021/10/22 10:55:27;;;;;;;7.20;2.90;;;12.40;63.30;;;;;;5069701;28;20246;-64
2021/10/22 10:57:55;;;;;;;3.70;2.63;;;12.40;63.80;;;;;;5066960;28;20229;-64
2021/10/22 11:00:24;;;;;;;3.20;2.17;;;12.50;64.10;;;;;;5068351;28;20243;-63
2021/10/22 11:03:18;;;;;;;4.68;1.25;;;12.50;63.90;;;;;;5069288;28;20205;-64
2021/10/22 11:06:06;;;;;;;3.35;1.38;;;12.50;60.90;;;;;;5069553;28;20551;-65
2021/10/22 11:08:45;;;;;;;2.00;1.20;;;12.50;59.50;;;;;;5068606;28;20276;-64
2021/10/22 11:11:35;;;;;;;4.72;2.45;;;12.60;59.00;;;;;;5067757;28;20217;-64
2021/10/22 11:14:14;;;;;;;10.38;5.97;;;12.70;58.90;;;;;;5068958;28;20208;-64
2021/10/22 11:16:46;;;;;;;2.38;2.10;;;12.90;58.80;;;;;;5069607;28;20229;-65
2021/10/22 11:19:14;;;;;;;2.53;1.52;;;12.80;57.20;;;;;;5068342;28;20233;-64
2021/10/22 11:21:46;;;;;;;2.90;1.58;;;12.80;57.10;;;;;;5069564;28;20243;-64
2021/10/22 11:24:16;;;;;;;3.35;1.42;;;12.90;59.10;;;;;;5068616;28;20221;-64
2021/10/22 11:26:46;;;;;;;3.22;1.05;;;13.00;59.10;;;;;;5070031;28;20773;-64
2021/10/22 11:29:17;;;;;;;2.05;1.08;;;13.00;59.00;;;;;;5069544;28;20220;-64
2021/10/22 11:31:46;;;;;;;4.60;1.73;;;13.20;58.70;;;;;;5065791;28;20251;-66
2021/10/22 11:34:23;;;;;;;2.35;1.48;;;13.40;58.00;;;;;;5068655;28;20190;-64
2021/10/22 11:36:57;;;;;;;4.75;2.15;;;13.50;56.50;;;;;;5069086;28;20200;-64
2021/10/22 11:39:27;;;;;;;3.95;1.70;;;13.50;56.30;;;;;;5067119;28;20790;-64
2021/10/22 11:42:18;;;;;;;2.20;1.13;;;13.60;54.90;;;;;;5068688;28;20197;-64
2021/10/22 11:44:54;;;;;;;2.80;1.40;;;13.80;55.90;;;;;;5065164;28;20193;-64
2021/10/22 11:47:23;;;;;;;7.93;6.43;;;14.00;55.90;;;;;;5069417;28;20203;-64
2021/10/22 11:49:50;;;;;;;13.25;11.90;;;14.20;54.60;;;;;;5069126;28;20190;-64
2021/10/22 11:52:19;;;;;;;6.00;5.43;;;14.30;54.90;;;;;;5068756;28;20182;-64
2021/10/22 11:54:49;;;;;;;3.47;3.17;;;14.50;55.00;;;;;;5069159;28;20440;-65
2021/10/22 11:57:19;;;;;;;2.97;2.00;;;14.70;54.60;;;;;;5066025;28;20472;-68
2021/10/22 11:59:52;;;;;;;3.03;2.00;;;14.70;53.90;;;;;;5068245;28;20515;-64
2021/10/22 12:02:23;;;;;;;3.03;2.22;;;14.70;52.20;;;;;;5050168;28;20452;-69
2021/10/22 12:04:57;;;;;;;2.63;1.53;;;14.70;52.30;;;;;;5063532;28;20644;-67
2021/10/22 12:07:24;;;;;;;3.17;1.80;;;14.70;52.30;;;;;;5066737;28;20472;-64
2021/10/22 12:09:55;;;;;;;1.90;1.30;;;14.70;51.80;;;;;;5067726;28;20464;-64
2021/10/22 12:12:24;;;;;;;5.50;1.60;;;14.60;51.40;;;;;;5068735;28;20834;-63
2021/10/22 12:14:52;;;;;;;2.00;1.30;;;14.50;51.70;;;;;;5073019;28;20455;-63
2021/10/22 12:17:21;;;;;;;2.90;1.40;;;14.60;52.00;;;;;;5074207;28;20450;-63
2021/10/22 12:19:50;;;;;;;2.03;1.20;;;14.60;51.60;;;;;;5074610;28;20483;-64
2021/10/22 12:22:24;;;;;;;2.47;1.50;;;14.80;51.30;;;;;;5074125;28;20542;-64
2021/10/22 12:24:53;;;;;;;1.80;1.03;;;15.10;51.30;;;;;;5071844;28;20510;-66
2021/10/22 12:27:20;;;;;;;1.90;0.80;;;15.30;49.90;;;;;;5074549;28;20942;-64
2021/10/22 12:29:55;;;;;;;2.23;1.37;;;15.30;50.50;;;;;;5074299;28;20856;-64
2021/10/22 12:32:35;;;;;;;2.57;1.00;;;15.20;49.00;;;;;;5072888;28;20439;-63
2021/10/22 12:35:04;;;;;;;2.67;1.00;;;15.20;49.90;;;;;;5073873;28;20450;-63
2021/10/22 12:37:37;;;;;;;2.20;1.20;;;15.30;49.20;;;;;;5073827;28;20945;-63
2021/10/22 12:40:23;;;;;;;4.90;1.10;;;15.40;49.30;;;;;;5073993;28;20479;-64
2021/10/22 12:43:24;;;;;;;3.20;1.10;;;15.70;49.90;;;;;;5073754;28;20525;-63
2021/10/22 12:46:00;;;;;;;2.17;1.00;;;16.70;51.10;;;;;;5072686;28;20434;-68
2021/10/22 12:48:30;;;;;;;2.40;0.97;;;19.50;53.50;;;;;;5072610;28;20522;-64
2021/10/22 12:51:04;;;;;;;2.53;1.20;;;22.90;47.80;;;;;;5074169;28;20439;-66
2021/10/22 12:53:34;;;;;;;2.33;1.10;;;25.30;39.50;;;;;;5074177;28;20801;-64
2021/10/22 12:56:09;;;;;;;1.70;1.00;;;24.90;33.20;;;;;;5072767;28;20530;-64
2021/10/22 12:58:38;;;;;;;5.43;0.93;;;24.00;32.00;;;;;;5068900;28;20490;-64
2021/10/22 13:01:10;;;;;;;1.87;0.80;;;23.00;32.20;;;;;;5070950;28;20476;-64
2021/10/22 13:03:38;;;;;;;1.80;1.00;;;22.10;32.60;;;;;;5072101;28;20452;-64
2021/10/22 13:15:10;;;;;;;2.07;1.00;;;19.90;33.10;;;;;;5061415;28;20428;-64
2021/10/22 13:23:10;;;;;;;2.37;1.10;;;18.70;37.40;;;;;;5069973;28;20440;-65
2021/10/22 13:25:39;;;;;;;1.50;0.87;;;18.50;38.20;;;;;;5069466;28;20456;-64